Terminal Aerodrome Forecast
Issued by NWS Los Angeles, CA

Home | Current Version | Previous Version | Text Only | Print | Product List | Glossary On
Versions: 1 2 3 4 5 6 7 8 9 10 11 12 13 14 15 16 17 18 19 20 21 22 23 24 25 26 27
842
FTUS46 KLOX 240541
TAFSMX
TAF
KSMX 240541Z 2406/2506 VRB03KT 5SM BR OVC004
     FM240800 00000KT 1/4SM FG OVC001
     FM241600 VRB03KT 2SM BR VCFG OVC004
     FM241800 30006KT 6SM BR SCT007
     FM242000 30010KT P6SM SCT250
     FM250300 VRB03KT 6SM BR OVC007=

USA.gov is the U.S. government's official web portal to all federal, state and local government web resources and services.